KSLG/SLG METAR and TAF weather

Enter ICAO airport designator
Station Type Date Time Source
KSLG METAR 2022/12/08 11:59 UTC NOAA

KSLG 081159Z AUTO 17003KT 3SM RA BR BKN002 BKN010 OVC055 12/12 A3013 RMK AO2 P0001


Station Type Date Time Source
KSLG Decoded METAR 2022/12/08 11:59 UTC NOAA

Siloam Springs, Smith Field Airport, AR, United States (KSLG) 36-12N 094-29W
Dec 08, 2022 - 06:59 AM EST / 2022.12.08 1159 UTC
Wind: from the S (170 degrees) at 3 MPH (3 KT):0
Visibility: 3 mile(s):0
Sky conditions: overcast
Weather: rain; mist
Precipitation last hour: 0.01 inches
Temperature: 53 F (12 C)
Dew Point: 53 F (12 C)
Relative Humidity: 100%
Pressure (altimeter): 30.13 in. Hg (1020 hPa)
ob: KSLG 081159Z AUTO 17003KT 3SM RA BR BKN002 BKN010 OVC055 12/12 A3013 RMK AO2 P0001
cycle: 12

Station Type Date Time Source
KSLG TAF UTC NOAA

Error!

Example: see airport list